createdAt,value
2023-03-23T00:01:14.088Z,76.64
2023-03-23T00:06:19.646Z,76.78
2023-03-23T00:11:27.508Z,76.59
2023-03-23T00:16:39.414Z,76.30
2023-03-23T00:21:46.762Z,76.75
2023-03-23T00:26:55.326Z,76.19
2023-03-23T00:32:03.150Z,76.71
2023-03-23T00:37:11.640Z,76.62
2023-03-23T00:42:20.207Z,76.55
2023-03-23T00:47:28.308Z,75.88
2023-03-23T00:52:34.784Z,75.31
2023-03-23T00:57:39.980Z,75.03
2023-03-23T01:02:47.686Z,75.28
2023-03-23T01:07:54.571Z,75.34
2023-03-23T01:12:59.586Z,75.95
2023-03-23T01:18:08.256Z,74.79
2023-03-23T01:23:19.107Z,74.66
2023-03-23T01:28:24.094Z,74.18
2023-03-23T01:33:32.729Z,73.80
2023-03-23T01:38:38.737Z,73.11
2023-03-23T01:43:59.004Z,72.16
2023-03-23T01:49:14.030Z,70.79
2023-03-23T01:54:23.006Z,70.59
2023-03-23T01:59:29.612Z,70.48
2023-03-23T02:05:00.278Z,69.87
2023-03-23T02:10:11.093Z,69.55
2023-03-23T02:15:18.200Z,68.97
2023-03-23T02:20:42.255Z,68.59
2023-03-23T02:26:06.814Z,68.02
2023-03-23T02:31:31.791Z,67.63
2023-03-23T02:36:47.802Z,67.04
2023-03-23T02:41:58.895Z,66.98
2023-03-23T02:47:07.105Z,66.49
2023-03-23T02:52:18.868Z,65.95
2023-03-23T02:57:40.294Z,65.73
2023-03-23T03:02:53.681Z,65.80
2023-03-23T03:08:11.014Z,65.70
2023-03-23T03:13:23.994Z,65.72
2023-03-23T03:18:34.464Z,65.87
2023-03-23T03:23:45.459Z,65.95
2023-03-23T03:28:52.608Z,65.84
2023-03-23T03:34:02.325Z,67.81
2023-03-23T03:39:15.026Z,69.37
2023-03-23T03:44:25.015Z,70.43
2023-03-23T03:49:31.147Z,68.92
2023-03-23T03:54:39.024Z,68.17
2023-03-23T03:59:45.048Z,68.51
2023-03-23T04:05:17.878Z,69.41
2023-03-23T04:10:32.714Z,68.65
2023-03-23T04:15:40.868Z,68.40
2023-03-23T04:21:09.199Z,68.91
2023-03-23T04:26:17.093Z,68.43
2023-03-23T04:31:28.268Z,68.77
2023-03-23T04:36:56.420Z,69.04
2023-03-23T04:42:15.058Z,70.56
2023-03-23T04:47:43.440Z,72.32
2023-03-23T04:53:00.443Z,74.01
2023-03-23T04:58:08.901Z,74.49
2023-03-23T05:03:20.676Z,75.05
2023-03-23T05:08:40.074Z,74.44
2023-03-23T05:13:50.482Z,75.71
2023-03-23T05:18:58.491Z,74.99
2023-03-23T05:24:09.418Z,74.48
2023-03-23T05:29:17.943Z,74.31
2023-03-23T05:34:36.198Z,73.77
2023-03-23T05:39:43.662Z,73.34
2023-03-23T05:44:58.515Z,73.78
2023-03-23T05:50:10.264Z,73.84
2023-03-23T05:55:16.557Z,73.99
2023-03-23T06:00:31.600Z,73.36
2023-03-23T06:05:48.339Z,73.17
2023-03-23T06:10:56.660Z,72.65
2023-03-23T06:16:06.143Z,71.79
2023-03-23T06:21:30.522Z,71.34
2023-03-23T06:26:45.354Z,71.44
2023-03-23T06:32:01.878Z,70.43
2023-03-23T06:37:07.955Z,70.41
2023-03-23T06:42:36.209Z,69.71
2023-03-23T06:48:04.071Z,69.98
2023-03-23T06:53:10.258Z,70.86
2023-03-23T06:58:25.084Z,69.92
2023-03-23T07:03:37.809Z,70.16
2023-03-23T07:08:44.589Z,70.50
2023-03-23T07:13:55.237Z,69.98
2023-03-23T07:19:03.257Z,69.88
2023-03-23T07:24:10.048Z,69.45
2023-03-23T07:29:40.056Z,68.41
2023-03-23T07:34:53.846Z,67.49
2023-03-23T07:40:20.298Z,67.04
2023-03-23T07:45:30.835Z,67.32
2023-03-23T07:50:42.126Z,67.95
2023-03-23T07:55:50.055Z,68.36
2023-03-23T08:01:16.073Z,68.70
2023-03-23T08:06:37.471Z,69.44
2023-03-23T08:12:01.732Z,69.04
2023-03-23T08:17:45.829Z,69.68
2023-03-23T08:23:07.585Z,69.99
2023-03-23T08:28:26.981Z,69.89
2023-03-23T08:33:51.626Z,70.71
2023-03-23T08:39:12.186Z,71.12
2023-03-23T08:44:40.509Z,72.14
2023-03-23T08:50:19.742Z,72.15
2023-03-23T08:55:47.058Z,72.41
2023-03-23T09:01:01.511Z,74.78
2023-03-23T09:06:27.909Z,77.52
2023-03-23T09:11:37.610Z,78.93
2023-03-23T09:16:42.554Z,79.44
2023-03-23T09:21:48.188Z,80.32
2023-03-23T09:26:55.982Z,80.99
2023-03-23T09:32:02.344Z,85.79
2023-03-23T09:37:08.645Z,87.19
2023-03-23T09:42:32.057Z,89.91
2023-03-23T09:47:46.785Z,92.25
2023-03-23T09:53:02.441Z,94.73
2023-03-23T09:58:17.340Z,93.45
2023-03-23T10:03:26.621Z,94.55
2023-03-23T10:08:37.802Z,95.31
2023-03-23T10:14:06.119Z,93.73
2023-03-23T10:19:22.228Z,93.33
2023-03-23T10:24:39.091Z,90.38
2023-03-23T10:29:52.490Z,88.18
2023-03-23T10:35:02.695Z,86.54
2023-03-23T10:40:20.130Z,85.62
2023-03-23T10:45:34.038Z,82.65
2023-03-23T10:50:41.327Z,84.77
2023-03-23T10:55:50.202Z,83.11
2023-03-23T11:00:59.765Z,81.67
2023-03-23T11:06:07.762Z,81.76
2023-03-23T11:11:20.355Z,83.13
2023-03-23T11:16:35.587Z,81.13
2023-03-23T11:21:43.577Z,82.68
2023-03-23T11:26:58.518Z,83.70
2023-03-23T11:32:13.555Z,84.54
2023-03-23T11:37:26.466Z,85.81
2023-03-23T11:42:44.392Z,86.82
2023-03-23T11:48:02.272Z,88.19
2023-03-23T11:53:34.220Z,90.19
2023-03-23T11:58:42.391Z,93.84
2023-03-23T12:04:07.637Z,95.82
2023-03-23T12:09:26.077Z,99.33
2023-03-23T12:14:42.314Z,98.75
2023-03-23T12:20:11.605Z,100.00
2023-03-23T12:25:34.838Z,100.00
2023-03-23T12:30:51.637Z,99.72
2023-03-23T12:36:16.930Z,96.16
2023-03-23T12:41:33.590Z,94.57
2023-03-23T12:47:05.172Z,92.62
2023-03-23T12:52:29.546Z,91.47
2023-03-23T12:57:42.408Z,90.61
2023-03-23T13:03:02.060Z,90.62
2023-03-23T13:08:18.316Z,89.78
2023-03-23T13:13:30.000Z,90.43
2023-03-23T13:18:45.849Z,87.33
2023-03-23T13:23:58.648Z,87.71
2023-03-23T13:29:05.978Z,87.98
2023-03-23T13:34:21.679Z,86.45
2023-03-23T13:39:31.932Z,86.48
2023-03-23T13:44:58.687Z,85.97
2023-03-23T13:50:06.717Z,83.79
2023-03-23T13:55:45.254Z,84.13
2023-03-23T14:00:54.765Z,82.17
2023-03-23T14:06:11.386Z,80.06
2023-03-23T14:11:43.351Z,80.14
2023-03-23T14:16:53.552Z,78.43
2023-03-23T14:22:00.279Z,78.02
2023-03-23T14:27:19.545Z,78.02
2023-03-23T14:32:27.491Z,77.26
2023-03-23T14:37:37.651Z,76.21
2023-03-23T14:42:49.665Z,77.82
2023-03-23T14:47:58.596Z,77.62
2023-03-23T14:53:23.196Z,77.81
2023-03-23T14:58:31.669Z,78.48
2023-03-23T15:03:40.947Z,79.57
2023-03-23T15:08:47.818Z,80.21
2023-03-23T15:13:58.971Z,80.42
2023-03-23T15:19:06.656Z,80.45
2023-03-23T15:24:28.584Z,81.28
2023-03-23T15:29:36.715Z,81.88
2023-03-23T15:34:44.125Z,81.71
2023-03-23T15:39:50.380Z,82.10
2023-03-23T15:45:19.357Z,81.99
2023-03-23T15:50:37.929Z,81.26
2023-03-23T15:55:43.353Z,81.80
2023-03-23T16:00:55.138Z,82.44
2023-03-23T16:06:03.745Z,80.88
2023-03-23T16:11:09.425Z,82.39
2023-03-23T16:16:21.440Z,81.27
2023-03-23T16:21:27.182Z,80.57
2023-03-23T16:26:33.765Z,81.28
2023-03-23T16:31:43.625Z,80.86
2023-03-23T16:36:50.809Z,81.83
2023-03-23T16:41:56.153Z,81.26
2023-03-23T16:47:04.181Z,81.61
2023-03-23T16:52:12.161Z,80.38
2023-03-23T16:57:20.744Z,81.52
2023-03-23T17:02:28.634Z,80.48
2023-03-23T17:07:34.172Z,81.62
2023-03-23T17:12:39.847Z,82.12
2023-03-23T17:17:47.961Z,83.28
2023-03-23T17:22:53.478Z,83.61
2023-03-23T17:27:58.442Z,84.68
2023-03-23T17:33:14.876Z,85.88
2023-03-23T17:38:27.458Z,86.49
2023-03-23T17:43:35.763Z,87.21
2023-03-23T17:48:44.264Z,87.28
2023-03-23T17:53:49.347Z,88.46
2023-03-23T17:58:55.043Z,88.36
2023-03-23T18:04:03.806Z,89.21
2023-03-23T18:09:13.689Z,90.04
2023-03-23T18:14:18.822Z,90.48
2023-03-23T18:19:26.834Z,90.74
2023-03-23T18:24:31.944Z,90.58
2023-03-23T18:29:39.641Z,91.09
2023-03-23T18:34:47.634Z,91.22
2023-03-23T18:39:53.869Z,91.18
2023-03-23T18:45:00.131Z,92.15
2023-03-23T18:50:11.944Z,93.55
2023-03-23T18:55:17.566Z,94.89
2023-03-23T19:00:24.341Z,94.86
2023-03-23T19:05:32.596Z,95.93
2023-03-23T19:10:40.659Z,96.50
2023-03-23T19:15:46.550Z,97.74
2023-03-23T19:21:13.758Z,98.24
2023-03-23T19:26:27.913Z,98.34
2023-03-23T19:31:33.400Z,98.67
2023-03-23T19:36:41.800Z,98.17
2023-03-23T19:41:47.142Z,97.35
2023-03-23T19:46:54.850Z,97.39
2023-03-23T19:52:07.251Z,97.54
2023-03-23T19:57:15.705Z,97.21
2023-03-23T20:02:24.705Z,97.41
2023-03-23T20:07:32.603Z,97.13
2023-03-23T20:12:37.654Z,97.05
2023-03-23T20:17:44.101Z,96.33
2023-03-23T20:22:55.178Z,96.71
2023-03-23T20:28:02.133Z,96.98
2023-03-23T20:33:09.641Z,96.61
2023-03-23T20:38:18.590Z,96.37
2023-03-23T20:43:25.125Z,96.05
2023-03-23T20:48:32.448Z,95.86
2023-03-23T20:53:43.090Z,95.12
2023-03-23T20:58:51.276Z,95.26
2023-03-23T21:03:58.012Z,94.90
2023-03-23T21:09:07.013Z,94.03
2023-03-23T21:14:12.789Z,94.05
2023-03-23T21:19:19.563Z,94.07
2023-03-23T21:24:29.538Z,94.78
2023-03-23T21:29:34.761Z,94.51
2023-03-23T21:34:43.206Z,94.93
2023-03-23T21:39:52.095Z,94.81
2023-03-23T21:45:02.777Z,94.57
2023-03-23T21:50:12.014Z,94.20
2023-03-23T21:55:23.701Z,94.74
2023-03-23T22:00:29.874Z,94.37
2023-03-23T22:05:38.130Z,94.05
2023-03-23T22:11:01.146Z,94.05
2023-03-23T22:16:08.531Z,94.23
2023-03-23T22:21:14.846Z,93.96
2023-03-23T22:26:30.217Z,94.39
2023-03-23T22:31:37.671Z,93.96
2023-03-23T22:36:43.314Z,93.88
2023-03-23T22:41:51.235Z,93.11
2023-03-23T22:46:56.883Z,93.35
2023-03-23T22:52:02.188Z,93.11
2023-03-23T22:57:12.076Z,92.31
2023-03-23T23:02:17.326Z,92.35
2023-03-23T23:07:22.628Z,92.09
2023-03-23T23:12:35.463Z,91.84
2023-03-23T23:17:40.632Z,91.88
2023-03-23T23:22:47.260Z,92.71
2023-03-23T23:27:55.866Z,92.52
2023-03-23T23:33:02.085Z,92.90
2023-03-23T23:38:07.538Z,93.08
2023-03-23T23:43:19.852Z,93.41
2023-03-23T23:48:24.953Z,95.32
2023-03-23T23:53:33.119Z,96.67
2023-03-23T23:58:42.009Z,96.83
